Huvudsida
METAR-TAF:

METAR-TAF

Flygplatser :

Melilla Airport

Melilla, Spanien

latitud: 35-17N, longitud: 002-57W, höjd: 47 m

Aktuellt väderrapport

Denna rapport gjordes för 38 minuter sedan, klockan 04:00 UTC
Vind 4 kt från ost, varierande mellan ost/nordost och sydost
Temperatur 24°C
Fuktighet 89%
Tryck 1018 hPa
Sikt 10 km eller mer
Brutna moln på en höjd av 1200 ft

METAR: GEML 230400Z AUTO 09004KT 060V140 9999 BKN012 24/22 Q1018

Tid: 06:38 (04:38 UTC)

Väderprognos

Denna rapport gjordes för 5 timmar och 38 minuter sedan, klockan 23:00 UTC
Prognos gäller från 23 kl. 00 UTC till 23 kl. 24 UTC
Vind 8 kt från ost
Sikt 10 km eller mer
Få moln på en höjd av 2000 ft
Sannolikhet 40% :
Temporärt
från 22 kl. 24 UTC till 23 kl. 12 UTC
Brutna moln på en höjd av 1200 ft

TAF: GEML 222300Z 2300/2324 10008KT 9999 FEW020 TX28/2314Z TN23/2305Z PROB40 TEMPO 2224/2312 BKN012

Aktuella väderrapporter och prognoser från 4000 flygplatser (METAR- och TAF-rapporter).

De tillgängliga stationerna syns som gula och röda prickar på kartan.

För musen över prickarna för att se namnen på stationerna.

Klicka sedan för att få väderrapporter och prognoser.

För att ändra kartan: Klicka på de gröna knapparna med ett svart kors på för att zooma in; den gröna knappen med ett streck på för att zooma ut; eller på de gröna pilarna för angränsande kartor.


METAR-TAF: